Weather at Finca Cuchuy Airport

Public forecast

Using degrees Celsius for public forecast. Weather courtesy of forecast.io.

Closest aviation weather report (METAR) to Finca Cuchuy Airport

Report is more than 6 hours old.

Closest report is General Enrique Mosconi Airport, 25.6 nm (47.3 km) N. Retrieved 2021/01/17 04:30 UTC (7 days ago):

SAST 170430Z 18018KT 3000 +TSRA FEW010 OVC025 FEW040CB 20/20 Q1009

Closest aviation forecast (TAF) to Finca Cuchuy Airport

Closest forecast is Yacuiba Airport, 64.9 nm (120.2 km) N. Retrieved 2021/01/23 18:57 UTC (5 hours ago):

TAF SLYA 231650Z 2318/2418 04010KT 9999 FEW023 SCT080 TX34/2319Z TN21 /2410Z BECMG 2323/2401 00000KT SCT023 BKN070 BECMG 2414/2416 12006KT